sensor_id;sensor_type;location;lat;lon;timestamp;pressure;altitude;pressure_sealevel;temperature;humidity
58662;BME280;44432;49.786;22.760;2022-11-12T00:01:48;100756.82;;;7.70;84.77
58662;BME280;44432;49.786;22.760;2022-11-12T00:04:19;100758.24;;;7.73;84.48
58662;BME280;44432;49.786;22.760;2022-11-12T00:06:50;100752.51;;;7.76;84.50
58662;BME280;44432;49.786;22.760;2022-11-12T00:09:21;100752.52;;;7.79;84.34
58662;BME280;44432;49.786;22.760;2022-11-12T00:11:51;100753.39;;;7.82;84.33
58662;BME280;44432;49.786;22.760;2022-11-12T00:14:22;100749.59;;;7.85;84.37
58662;BME280;44432;49.786;22.760;2022-11-12T00:16:53;100742.77;;;7.82;84.27
58662;BME280;44432;49.786;22.760;2022-11-12T00:19:24;100761.23;;;7.97;84.53
58662;BME280;44432;49.786;22.760;2022-11-12T00:21:54;100764.78;;;8.04;84.20
58662;BME280;44432;49.786;22.760;2022-11-12T00:24:25;100769.11;;;8.12;84.18
58662;BME280;44432;49.786;22.760;2022-11-12T00:26:56;100768.24;;;8.20;84.24
58662;BME280;44432;49.786;22.760;2022-11-12T00:29:26;100765.83;;;8.28;83.84
58662;BME280;44432;49.786;22.760;2022-11-12T00:31:57;100764.59;;;8.35;83.87
58662;BME280;44432;49.786;22.760;2022-11-12T00:34:28;100769.17;;;8.41;83.42
58662;BME280;44432;49.786;22.760;2022-11-12T00:36:59;100763.83;;;8.47;83.25
58662;BME280;44432;49.786;22.760;2022-11-12T00:39:30;100763.51;;;8.53;83.05
58662;BME280;44432;49.786;22.760;2022-11-12T00:42:02;100765.95;;;8.58;82.87
58662;BME280;44432;49.786;22.760;2022-11-12T00:44:32;100768.85;;;8.64;82.75
58662;BME280;44432;49.786;22.760;2022-11-12T00:47:03;100772.27;;;8.68;82.49
58662;BME280;44432;49.786;22.760;2022-11-12T00:49:34;100773.66;;;8.71;82.37
58662;BME280;44432;49.786;22.760;2022-11-12T00:52:05;100773.14;;;8.74;82.08
58662;BME280;44432;49.786;22.760;2022-11-12T00:54:35;100777.52;;;8.78;81.97
58662;BME280;44432;49.786;22.760;2022-11-12T00:57:06;100779.75;;;8.80;81.86
58662;BME280;44432;49.786;22.760;2022-11-12T00:59:37;100773.94;;;8.82;81.82
58662;BME280;44432;49.786;22.760;2022-11-12T01:02:08;100780.42;;;8.83;81.71
58662;BME280;44432;49.786;22.760;2022-11-12T01:04:38;100779.59;;;8.84;81.48
58662;BME280;44432;49.786;22.760;2022-11-12T01:07:09;100776.44;;;8.86;81.42
58662;BME280;44432;49.786;22.760;2022-11-12T01:09:40;100774.06;;;8.87;81.32
58662;BME280;44432;49.786;22.760;2022-11-12T01:12:10;100772.02;;;8.88;81.24
58662;BME280;44432;49.786;22.760;2022-11-12T01:14:41;100769.84;;;8.89;81.27
58662;BME280;44432;49.786;22.760;2022-11-12T01:17:12;100770.24;;;8.90;81.34
58662;BME280;44432;49.786;22.760;2022-11-12T01:19:42;100764.15;;;8.91;81.21
58662;BME280;44432;49.786;22.760;2022-11-12T01:22:13;100758.56;;;8.91;81.11
58662;BME280;44432;49.786;22.760;2022-11-12T01:24:43;100766.91;;;8.92;81.17
58662;BME280;44432;49.786;22.760;2022-11-12T01:27:14;100765.50;;;8.92;81.12
58662;BME280;44432;49.786;22.760;2022-11-12T01:29:44;100765.01;;;8.91;81.07
58662;BME280;44432;49.786;22.760;2022-11-12T01:32:15;100767.11;;;8.91;81.04
58662;BME280;44432;49.786;22.760;2022-11-12T01:34:46;100773.47;;;8.91;81.09
58662;BME280;44432;49.786;22.760;2022-11-12T01:37:16;100776.17;;;8.90;81.06
58662;BME280;44432;49.786;22.760;2022-11-12T01:39:47;100779.13;;;8.89;81.14
58662;BME280;44432;49.786;22.760;2022-11-12T01:42:17;100788.36;;;8.90;81.00
58662;BME280;44432;49.786;22.760;2022-11-12T01:44:50;100795.86;;;8.89;80.96
58662;BME280;44432;49.786;22.760;2022-11-12T01:47:22;100797.34;;;8.91;81.05
58662;BME280;44432;49.786;22.760;2022-11-12T01:49:57;100793.19;;;8.91;81.00
58662;BME280;44432;49.786;22.760;2022-11-12T01:52:32;100796.58;;;8.94;81.04
58662;BME280;44432;49.786;22.760;2022-11-12T01:55:08;100798.13;;;8.94;80.91
58662;BME280;44432;49.786;22.760;2022-11-12T01:57:44;100796.88;;;8.92;80.77
58662;BME280;44432;49.786;22.760;2022-11-12T02:00:18;100800.73;;;8.94;80.84
58662;BME280;44432;49.786;22.760;2022-11-12T02:02:53;100803.06;;;8.95;80.90
58662;BME280;44432;49.786;22.760;2022-11-12T02:05:25;100796.33;;;8.96;80.83
58662;BME280;44432;49.786;22.760;2022-11-12T02:07:57;100793.63;;;8.96;80.74
58662;BME280;44432;49.786;22.760;2022-11-12T02:10:29;100790.29;;;8.96;80.81
58662;BME280;44432;49.786;22.760;2022-11-12T02:13:00;100784.80;;;8.97;80.77
58662;BME280;44432;49.786;22.760;2022-11-12T02:15:48;100781.52;;;8.96;80.79
58662;BME280;44432;49.786;22.760;2022-11-12T02:18:19;100784.98;;;8.97;80.67
58662;BME280;44432;49.786;22.760;2022-11-12T02:20:56;100781.02;;;8.98;80.86
58662;BME280;44432;49.786;22.760;2022-11-12T02:23:27;100781.56;;;8.97;81.06
58662;BME280;44432;49.786;22.760;2022-11-12T02:25:59;100778.21;;;8.98;80.81
58662;BME280;44432;49.786;22.760;2022-11-12T02:28:31;100780.32;;;8.98;80.69
58662;BME280;44432;49.786;22.760;2022-11-12T02:31:02;100776.23;;;8.98;80.81
58662;BME280;44432;49.786;22.760;2022-11-12T02:33:32;100776.83;;;8.97;80.82
58662;BME280;44432;49.786;22.760;2022-11-12T02:36:03;100772.09;;;8.97;80.78
58662;BME280;44432;49.786;22.760;2022-11-12T02:38:34;100775.11;;;8.97;80.64
58662;BME280;44432;49.786;22.760;2022-11-12T02:41:05;100779.04;;;8.98;80.71
58662;BME280;44432;49.786;22.760;2022-11-12T02:43:35;100780.45;;;8.98;80.67
58662;BME280;44432;49.786;22.760;2022-11-12T02:46:06;100779.73;;;8.98;80.64
58662;BME280;44432;49.786;22.760;2022-11-12T02:48:37;100792.77;;;8.99;80.71
58662;BME280;44432;49.786;22.760;2022-11-12T02:51:07;100799.98;;;8.99;80.66
58662;BME280;44432;49.786;22.760;2022-11-12T02:53:38;100806.33;;;9.01;80.71
58662;BME280;44432;49.786;22.760;2022-11-12T02:56:09;100811.54;;;9.01;80.50
58662;BME280;44432;49.786;22.760;2022-11-12T02:58:39;100811.11;;;9.02;80.64
58662;BME280;44432;49.786;22.760;2022-11-12T03:01:10;100813.02;;;9.02;80.57
58662;BME280;44432;49.786;22.760;2022-11-12T03:03:40;100819.11;;;9.03;80.68
58662;BME280;44432;49.786;22.760;2022-11-12T03:06:11;100819.57;;;9.03;80.65
58662;BME280;44432;49.786;22.760;2022-11-12T03:08:41;100818.25;;;9.04;80.60
58662;BME280;44432;49.786;22.760;2022-11-12T03:11:13;100818.55;;;9.05;80.61
58662;BME280;44432;49.786;22.760;2022-11-12T03:13:45;100818.02;;;9.04;80.55
58662;BME280;44432;49.786;22.760;2022-11-12T03:16:15;100813.80;;;9.04;80.52
58662;BME280;44432;49.786;22.760;2022-11-12T03:18:46;100814.41;;;9.04;80.62
58662;BME280;44432;49.786;22.760;2022-11-12T03:21:16;100817.55;;;9.04;80.58
58662;BME280;44432;49.786;22.760;2022-11-12T03:23:47;100820.78;;;9.03;80.60
58662;BME280;44432;49.786;22.760;2022-11-12T03:26:17;100816.80;;;9.01;80.63
58662;BME280;44432;49.786;22.760;2022-11-12T03:28:48;100819.40;;;9.00;80.61
58662;BME280;44432;49.786;22.760;2022-11-12T03:31:20;100818.31;;;8.99;80.71
58662;BME280;44432;49.786;22.760;2022-11-12T03:33:50;100814.10;;;8.99;80.75
58662;BME280;44432;49.786;22.760;2022-11-12T03:36:21;100810.96;;;8.98;80.80
58662;BME280;44432;49.786;22.760;2022-11-12T03:38:52;100806.73;;;8.97;80.77
58662;BME280;44432;49.786;22.760;2022-11-12T03:41:22;100799.13;;;8.96;80.95
58662;BME280;44432;49.786;22.760;2022-11-12T03:43:53;100797.58;;;8.95;81.02
58662;BME280;44432;49.786;22.760;2022-11-12T03:46:23;100796.91;;;8.95;80.71
58662;BME280;44432;49.786;22.760;2022-11-12T03:48:54;100792.77;;;8.93;80.85
58662;BME280;44432;49.786;22.760;2022-11-12T03:51:24;100790.33;;;8.94;80.94
58662;BME280;44432;49.786;22.760;2022-11-12T03:53:55;100794.88;;;8.95;80.89
58662;BME280;44432;49.786;22.760;2022-11-12T03:56:25;100799.61;;;8.95;80.81
58662;BME280;44432;49.786;22.760;2022-11-12T03:58:56;100800.48;;;8.95;80.87
58662;BME280;44432;49.786;22.760;2022-11-12T04:01:27;100794.11;;;8.93;80.89
58662;BME280;44432;49.786;22.760;2022-11-12T04:03:57;100801.71;;;8.95;80.94
58662;BME280;44432;49.786;22.760;2022-11-12T04:06:28;100803.27;;;8.95;80.87
58662;BME280;44432;49.786;22.760;2022-11-12T04:09:16;100807.09;;;8.95;80.83
58662;BME280;44432;49.786;22.760;2022-11-12T04:11:46;100815.16;;;8.95;80.69
58662;BME280;44432;49.786;22.760;2022-11-12T04:14:17;100811.04;;;8.96;80.74
58662;BME280;44432;49.786;22.760;2022-11-12T04:16:48;100808.64;;;8.97;80.77
58662;BME280;44432;49.786;22.760;2022-11-12T04:19:36;100807.45;;;8.98;80.76
58662;BME280;44432;49.786;22.760;2022-11-12T04:22:24;100815.29;;;8.97;80.74
58662;BME280;44432;49.786;22.760;2022-11-12T04:24:55;100821.31;;;9.00;80.63
58662;BME280;44432;49.786;22.760;2022-11-12T04:27:47;100819.54;;;9.00;80.57
58662;BME280;44432;49.786;22.760;2022-11-12T04:30:18;100822.49;;;8.99;80.60
58662;BME280;44432;49.786;22.760;2022-11-12T04:32:50;100823.38;;;8.99;80.67
58662;BME280;44432;49.786;22.760;2022-11-12T04:35:24;100823.02;;;8.99;80.62
58662;BME280;44432;49.786;22.760;2022-11-12T04:37:55;100822.86;;;8.99;80.61
58662;BME280;44432;49.786;22.760;2022-11-12T04:40:27;100823.65;;;8.99;80.59
58662;BME280;44432;49.786;22.760;2022-11-12T04:43:17;100821.58;;;8.99;80.51
58662;BME280;44432;49.786;22.760;2022-11-12T04:46:06;100819.58;;;9.00;80.73
58662;BME280;44432;49.786;22.760;2022-11-12T04:48:37;100817.30;;;9.00;80.68
58662;BME280;44432;49.786;22.760;2022-11-12T04:51:07;100816.21;;;9.00;80.56
58662;BME280;44432;49.786;22.760;2022-11-12T04:53:52;100812.65;;;9.01;80.60
58662;BME280;44432;49.786;22.760;2022-11-12T04:56:23;100812.98;;;9.01;80.58
58662;BME280;44432;49.786;22.760;2022-11-12T04:58:53;100817.00;;;9.01;80.53
58662;BME280;44432;49.786;22.760;2022-11-12T05:01:24;100824.84;;;9.00;80.64
58662;BME280;44432;49.786;22.760;2022-11-12T05:03:54;100819.60;;;9.00;80.63
58662;BME280;44432;49.786;22.760;2022-11-12T05:06:25;100827.70;;;9.00;80.56
58662;BME280;44432;49.786;22.760;2022-11-12T05:09:29;100829.78;;;9.00;80.59
58662;BME280;44432;49.786;22.760;2022-11-12T05:11:59;100829.61;;;9.00;80.61
58662;BME280;44432;49.786;22.760;2022-11-12T05:14:30;100823.05;;;8.99;80.67
58662;BME280;44432;49.786;22.760;2022-11-12T05:17:01;100821.80;;;8.99;80.56
58662;BME280;44432;49.786;22.760;2022-11-12T05:19:32;100819.44;;;8.98;80.61
58662;BME280;44432;49.786;22.760;2022-11-12T05:22:03;100821.77;;;8.98;80.52
58662;BME280;44432;49.786;22.760;2022-11-12T05:24:36;100827.47;;;8.97;80.47
58662;BME280;44432;49.786;22.760;2022-11-12T05:27:09;100828.95;;;8.95;80.70
58662;BME280;44432;49.786;22.760;2022-11-12T05:29:40;100831.09;;;8.94;80.61
58662;BME280;44432;49.786;22.760;2022-11-12T05:32:14;100829.51;;;8.94;80.63
58662;BME280;44432;49.786;22.760;2022-11-12T05:34:45;100832.23;;;8.95;80.73
58662;BME280;44432;49.786;22.760;2022-11-12T05:37:16;100835.99;;;8.94;80.56
58662;BME280;44432;49.786;22.760;2022-11-12T05:39:46;100844.23;;;8.95;80.65
58662;BME280;44432;49.786;22.760;2022-11-12T05:42:17;100847.32;;;8.95;80.64
58662;BME280;44432;49.786;22.760;2022-11-12T05:44:47;100848.48;;;8.94;80.63
58662;BME280;44432;49.786;22.760;2022-11-12T05:47:18;100851.86;;;8.94;80.66
58662;BME280;44432;49.786;22.760;2022-11-12T05:49:49;100857.92;;;8.93;80.69
58662;BME280;44432;49.786;22.760;2022-11-12T05:52:19;100858.38;;;8.94;80.57
58662;BME280;44432;49.786;22.760;2022-11-12T05:54:50;100861.42;;;8.95;80.62
58662;BME280;44432;49.786;22.760;2022-11-12T05:57:20;100857.33;;;8.95;80.63
58662;BME280;44432;49.786;22.760;2022-11-12T05:59:51;100857.00;;;8.95;80.64
58662;BME280;44432;49.786;22.760;2022-11-12T06:02:22;100859.11;;;8.98;80.60
58662;BME280;44432;49.786;22.760;2022-11-12T06:04:52;100864.55;;;9.00;80.71
58662;BME280;44432;49.786;22.760;2022-11-12T06:07:23;100865.11;;;9.01;80.71
58662;BME280;44432;49.786;22.760;2022-11-12T06:09:53;100867.64;;;9.02;80.70
58662;BME280;44432;49.786;22.760;2022-11-12T06:12:24;100869.78;;;9.03;80.65
58662;BME280;44432;49.786;22.760;2022-11-12T06:14:54;100868.60;;;9.04;80.60
58662;BME280;44432;49.786;22.760;2022-11-12T06:17:25;100868.47;;;9.06;80.63
58662;BME280;44432;49.786;22.760;2022-11-12T06:19:56;100868.40;;;9.06;80.50
58662;BME280;44432;49.786;22.760;2022-11-12T06:22:26;100864.32;;;9.07;80.51
58662;BME280;44432;49.786;22.760;2022-11-12T06:24:57;100866.89;;;9.07;80.44
58662;BME280;44432;49.786;22.760;2022-11-12T06:27:27;100862.35;;;9.10;80.65
58662;BME280;44432;49.786;22.760;2022-11-12T06:29:58;100863.47;;;9.13;80.46
58662;BME280;44432;49.786;22.760;2022-11-12T06:32:29;100862.22;;;9.15;80.40
58662;BME280;44432;49.786;22.760;2022-11-12T06:34:59;100859.88;;;9.17;80.46
58662;BME280;44432;49.786;22.760;2022-11-12T06:37:30;100858.86;;;9.20;80.40
58662;BME280;44432;49.786;22.760;2022-11-12T06:40:01;100859.91;;;9.23;80.39
58662;BME280;44432;49.786;22.760;2022-11-12T06:42:31;100863.99;;;9.26;80.44
58662;BME280;44432;49.786;22.760;2022-11-12T06:45:02;100865.74;;;9.29;80.35
58662;BME280;44432;49.786;22.760;2022-11-12T06:47:33;100862.89;;;9.31;80.28
58662;BME280;44432;49.786;22.760;2022-11-12T06:50:04;100869.17;;;9.36;80.20
58662;BME280;44432;49.786;22.760;2022-11-12T06:52:35;100873.12;;;9.39;80.22
58662;BME280;44432;49.786;22.760;2022-11-12T06:55:06;100875.27;;;9.43;80.20
58662;BME280;44432;49.786;22.760;2022-11-12T06:57:38;100875.30;;;9.48;80.15
58662;BME280;44432;49.786;22.760;2022-11-12T07:00:10;100879.44;;;9.52;80.08
58662;BME280;44432;49.786;22.760;2022-11-12T07:02:41;100886.49;;;9.57;79.97
58662;BME280;44432;49.786;22.760;2022-11-12T07:05:12;100889.29;;;9.60;79.82
58662;BME280;44432;49.786;22.760;2022-11-12T07:07:42;100890.27;;;9.62;79.61
58662;BME280;44432;49.786;22.760;2022-11-12T07:10:13;100891.83;;;9.64;79.63
58662;BME280;44432;49.786;22.760;2022-11-12T07:12:44;100889.74;;;9.67;79.54
58662;BME280;44432;49.786;22.760;2022-11-12T07:15:15;100888.82;;;9.69;79.52
58662;BME280;44432;49.786;22.760;2022-11-12T07:17:47;100892.64;;;9.69;79.27
58662;BME280;44432;49.786;22.760;2022-11-12T07:20:18;100896.00;;;9.69;79.32
58662;BME280;44432;49.786;22.760;2022-11-12T07:22:48;100893.33;;;9.69;79.12
58662;BME280;44432;49.786;22.760;2022-11-12T07:25:19;100896.47;;;9.70;79.08
58662;BME280;44432;49.786;22.760;2022-11-12T07:27:50;100907.17;;;9.71;79.11
58662;BME280;44432;49.786;22.760;2022-11-12T07:30:23;100902.89;;;9.74;79.09
58662;BME280;44432;49.786;22.760;2022-11-12T07:32:53;100900.19;;;9.74;79.06
58662;BME280;44432;49.786;22.760;2022-11-12T07:35:26;100895.89;;;9.77;79.01
58662;BME280;44432;49.786;22.760;2022-11-12T07:37:57;100895.06;;;9.79;78.89
58662;BME280;44432;49.786;22.760;2022-11-12T07:40:27;100891.30;;;9.81;78.82
58662;BME280;44432;49.786;22.760;2022-11-12T07:42:59;100893.83;;;9.84;78.85
58662;BME280;44432;49.786;22.760;2022-11-12T07:45:29;100891.33;;;9.86;78.80
58662;BME280;44432;49.786;22.760;2022-11-12T07:48:00;100895.31;;;9.87;78.75
58662;BME280;44432;49.786;22.760;2022-11-12T07:50:31;100901.54;;;9.88;78.69
58662;BME280;44432;49.786;22.760;2022-11-12T07:53:01;100897.92;;;9.90;78.62
58662;BME280;44432;49.786;22.760;2022-11-12T07:55:32;100896.26;;;9.92;78.54
58662;BME280;44432;49.786;22.760;2022-11-12T07:58:02;100889.48;;;9.96;78.54
58662;BME280;44432;49.786;22.760;2022-11-12T08:00:33;100889.77;;;10.02;78.70
58662;BME280;44432;49.786;22.760;2022-11-12T08:03:04;100898.39;;;10.08;78.61
58662;BME280;44432;49.786;22.760;2022-11-12T08:05:35;100895.36;;;10.08;78.37
58662;BME280;44432;49.786;22.760;2022-11-12T08:08:06;100893.66;;;10.12;78.32
58662;BME280;44432;49.786;22.760;2022-11-12T08:10:36;100896.50;;;10.19;78.49
58662;BME280;44432;49.786;22.760;2022-11-12T08:13:07;100897.44;;;10.20;78.04
58662;BME280;44432;49.786;22.760;2022-11-12T08:15:37;100891.09;;;10.20;78.13
58662;BME280;44432;49.786;22.760;2022-11-12T08:18:08;100897.12;;;10.25;78.28
58662;BME280;44432;49.786;22.760;2022-11-12T08:20:38;100898.70;;;10.26;78.23
58662;BME280;44432;49.786;22.760;2022-11-12T08:23:09;100899.48;;;10.30;78.21
58662;BME280;44432;49.786;22.760;2022-11-12T08:25:40;100900.89;;;10.32;77.83
58662;BME280;44432;49.786;22.760;2022-11-12T08:28:10;100901.44;;;10.33;77.94
58662;BME280;44432;49.786;22.760;2022-11-12T08:30:41;100902.96;;;10.33;77.86
58662;BME280;44432;49.786;22.760;2022-11-12T08:33:12;100903.91;;;10.35;77.73
58662;BME280;44432;49.786;22.760;2022-11-12T08:35:42;100906.19;;;10.35;77.79
58662;BME280;44432;49.786;22.760;2022-11-12T08:38:13;100902.94;;;10.38;77.81
58662;BME280;44432;49.786;22.760;2022-11-12T08:40:44;100903.48;;;10.40;78.04
58662;BME280;44432;49.786;22.760;2022-11-12T08:43:15;100907.83;;;10.39;77.69
58662;BME280;44432;49.786;22.760;2022-11-12T08:45:46;100914.63;;;10.40;77.98
58662;BME280;44432;49.786;22.760;2022-11-12T08:48:18;100914.20;;;10.40;77.87
58662;BME280;44432;49.786;22.760;2022-11-12T08:50:48;100911.16;;;10.45;77.94
58662;BME280;44432;49.786;22.760;2022-11-12T08:53:20;100911.08;;;10.52;78.21
58662;BME280;44432;49.786;22.760;2022-11-12T08:55:53;100911.40;;;10.60;78.26
58662;BME280;44432;49.786;22.760;2022-11-12T08:58:24;100913.45;;;10.65;78.08
58662;BME280;44432;49.786;22.760;2022-11-12T09:00:55;100918.17;;;10.64;77.56
58662;BME280;44432;49.786;22.760;2022-11-12T09:03:26;100921.40;;;10.61;77.52
58662;BME280;44432;49.786;22.760;2022-11-12T09:05:56;100921.73;;;10.59;77.74
58662;BME280;44432;49.786;22.760;2022-11-12T09:08:27;100922.58;;;10.56;77.55
58662;BME280;44432;49.786;22.760;2022-11-12T09:10:58;100923.30;;;10.56;77.64
58662;BME280;44432;49.786;22.760;2022-11-12T09:13:28;100924.35;;;10.58;77.63
58662;BME280;44432;49.786;22.760;2022-11-12T09:16:04;100918.02;;;10.56;77.55
58662;BME280;44432;49.786;22.760;2022-11-12T09:18:35;100915.48;;;10.55;77.58
58662;BME280;44432;49.786;22.760;2022-11-12T09:21:09;100915.84;;;10.55;77.49
58662;BME280;44432;49.786;22.760;2022-11-12T09:23:40;100924.40;;;10.54;77.68
58662;BME280;44432;49.786;22.760;2022-11-12T09:26:11;100927.50;;;10.55;77.67
58662;BME280;44432;49.786;22.760;2022-11-12T09:28:42;100929.35;;;10.56;77.68
58662;BME280;44432;49.786;22.760;2022-11-12T09:31:12;100931.91;;;10.56;77.49
58662;BME280;44432;49.786;22.760;2022-11-12T09:33:43;100928.86;;;10.52;77.68
58662;BME280;44432;49.786;22.760;2022-11-12T09:36:13;100922.90;;;10.48;77.39
58662;BME280;44432;49.786;22.760;2022-11-12T09:38:45;100927.28;;;10.44;77.46
58662;BME280;44432;49.786;22.760;2022-11-12T09:41:21;100922.37;;;10.42;77.50
58662;BME280;44432;49.786;22.760;2022-11-12T09:43:54;100921.90;;;10.42;77.63
58662;BME280;44432;49.786;22.760;2022-11-12T09:46:32;100917.27;;;10.45;77.78
58662;BME280;44432;49.786;22.760;2022-11-12T09:49:09;100913.46;;;10.48;77.44
58662;BME280;44432;49.786;22.760;2022-11-12T09:51:45;100911.69;;;10.53;77.52
58662;BME280;44432;49.786;22.760;2022-11-12T09:54:25;100911.24;;;10.57;77.00
58662;BME280;44432;49.786;22.760;2022-11-12T09:56:57;100909.04;;;10.56;76.99
58662;BME280;44432;49.786;22.760;2022-11-12T09:59:31;100903.33;;;10.57;76.92
58662;BME280;44432;49.786;22.760;2022-11-12T10:02:11;100911.16;;;10.59;77.07
58662;BME280;44432;49.786;22.760;2022-11-12T10:04:55;100910.89;;;10.62;76.99
58662;BME280;44432;49.786;22.760;2022-11-12T10:07:30;100912.97;;;10.63;76.86
58662;BME280;44432;49.786;22.760;2022-11-12T10:10:11;100917.52;;;10.64;76.72
58662;BME280;44432;49.786;22.760;2022-11-12T10:12:53;100915.17;;;10.66;76.94
58662;BME280;44432;49.786;22.760;2022-11-12T10:15:37;100905.44;;;10.69;76.84
58662;BME280;44432;49.786;22.760;2022-11-12T10:18:38;100908.23;;;10.72;76.71
58662;BME280;44432;49.786;22.760;2022-11-12T10:21:16;100911.05;;;10.75;76.52
58662;BME280;44432;49.786;22.760;2022-11-12T10:23:52;100909.98;;;10.78;76.51
58662;BME280;44432;49.786;22.760;2022-11-12T10:26:24;100913.86;;;10.82;76.33
58662;BME280;44432;49.786;22.760;2022-11-12T10:29:01;100910.32;;;10.84;76.18
58662;BME280;44432;49.786;22.760;2022-11-12T10:31:36;100909.67;;;10.86;76.05
58662;BME280;44432;49.786;22.760;2022-11-12T10:34:16;100905.95;;;10.87;75.66
58662;BME280;44432;49.786;22.760;2022-11-12T10:36:50;100903.18;;;10.85;75.50
58662;BME280;44432;49.786;22.760;2022-11-12T10:39:34;100903.83;;;10.86;75.87
58662;BME280;44432;49.786;22.760;2022-11-12T10:42:07;100902.84;;;10.91;75.75
58662;BME280;44432;49.786;22.760;2022-11-12T10:44:39;100898.27;;;10.93;75.75
58662;BME280;44432;49.786;22.760;2022-11-12T10:47:26;100899.48;;;11.00;75.71
58662;BME280;44432;49.786;22.760;2022-11-12T10:50:10;100898.17;;;11.06;75.49
58662;BME280;44432;49.786;22.760;2022-11-12T10:52:59;100900.65;;;11.12;75.28
58662;BME280;44432;49.786;22.760;2022-11-12T10:55:33;100893.86;;;11.18;75.09
58662;BME280;44432;49.786;22.760;2022-11-12T10:58:14;100890.86;;;11.24;74.94
58662;BME280;44432;49.786;22.760;2022-11-12T11:00:57;100890.39;;;11.33;74.99
58662;BME280;44432;49.786;22.760;2022-11-12T11:03:31;100884.16;;;11.38;74.66
58662;BME280;44432;49.786;22.760;2022-11-12T11:06:05;100888.98;;;11.44;74.69
58662;BME280;44432;49.786;22.760;2022-11-12T11:08:39;100887.61;;;11.45;74.19
58662;BME280;44432;49.786;22.760;2022-11-12T11:11:19;100889.20;;;11.47;74.38
58662;BME280;44432;49.786;22.760;2022-11-12T11:13:52;100886.98;;;11.49;74.11
58662;BME280;44432;49.786;22.760;2022-11-12T11:16:22;100882.70;;;11.50;73.84
58662;BME280;44432;49.786;22.760;2022-11-12T11:18:55;100884.21;;;11.47;73.78
58662;BME280;44432;49.786;22.760;2022-11-12T11:21:38;100882.19;;;11.48;73.77
58662;BME280;44432;49.786;22.760;2022-11-12T11:24:27;100884.60;;;11.49;73.31
58662;BME280;44432;49.786;22.760;2022-11-12T11:27:06;100880.34;;;11.44;73.37
58662;BME280;44432;49.786;22.760;2022-11-12T11:29:52;100880.73;;;11.44;73.38
58662;BME280;44432;49.786;22.760;2022-11-12T11:32:35;100883.10;;;11.42;73.13
58662;BME280;44432;49.786;22.760;2022-11-12T11:35:16;100882.46;;;11.38;73.19
58662;BME280;44432;49.786;22.760;2022-11-12T11:37:58;100879.77;;;11.37;72.97
58662;BME280;44432;49.786;22.760;2022-11-12T11:40:35;100874.16;;;11.40;73.36
58662;BME280;44432;49.786;22.760;2022-11-12T11:43:16;100874.95;;;11.41;73.13
58662;BME280;44432;49.786;22.760;2022-11-12T11:46:03;100874.33;;;11.43;73.24
58662;BME280;44432;49.786;22.760;2022-11-12T11:48:37;100870.29;;;11.44;72.97
58662;BME280;44432;49.786;22.760;2022-11-12T11:51:29;100867.14;;;11.41;72.76
58662;BME280;44432;49.786;22.760;2022-11-12T11:54:18;100868.02;;;11.40;72.80
58662;BME280;44432;49.786;22.760;2022-11-12T11:56:59;100865.85;;;11.37;72.60
58662;BME280;44432;49.786;22.760;2022-11-12T11:59:40;100859.89;;;11.34;72.77
58662;BME280;44432;49.786;22.760;2022-11-12T12:02:29;100858.60;;;11.32;72.50
58662;BME280;44432;49.786;22.760;2022-11-12T12:05:16;100856.71;;;11.31;72.83
58662;BME280;44432;49.786;22.760;2022-11-12T12:07:57;100851.77;;;11.33;72.76
58662;BME280;44432;49.786;22.760;2022-11-12T12:10:41;100845.66;;;11.36;72.91
58662;BME280;44432;49.786;22.760;2022-11-12T12:13:23;100843.84;;;11.43;72.91
58662;BME280;44432;49.786;22.760;2022-11-12T12:16:12;100841.48;;;11.49;72.86
58662;BME280;44432;49.786;22.760;2022-11-12T12:18:49;100843.18;;;11.58;72.85
58662;BME280;44432;49.786;22.760;2022-11-12T12:21:23;100836.83;;;11.62;72.68
58662;BME280;44432;49.786;22.760;2022-11-12T12:23:59;100834.27;;;11.68;72.42
58662;BME280;44432;49.786;22.760;2022-11-12T12:26:36;100833.61;;;11.73;72.27
58662;BME280;44432;49.786;22.760;2022-11-12T12:29:13;100832.16;;;11.77;72.19
58662;BME280;44432;49.786;22.760;2022-11-12T12:31:49;100831.07;;;11.84;72.01
58662;BME280;44432;49.786;22.760;2022-11-12T12:34:25;100826.86;;;11.90;71.77
58662;BME280;44432;49.786;22.760;2022-11-12T12:37:03;100823.13;;;11.93;71.65
58662;BME280;44432;49.786;22.760;2022-11-12T12:39:41;100819.19;;;11.99;71.46
58662;BME280;44432;49.786;22.760;2022-11-12T12:42:16;100817.67;;;12.03;70.97
58662;BME280;44432;49.786;22.760;2022-11-12T12:44:51;100812.06;;;12.05;70.90
58662;BME280;44432;49.786;22.760;2022-11-12T12:47:37;100816.61;;;12.15;70.98
58662;BME280;44432;49.786;22.760;2022-11-12T12:50:13;100818.60;;;12.27;71.02
58662;BME280;44432;49.786;22.760;2022-11-12T12:53:01;100818.17;;;12.39;70.84
58662;BME280;44432;49.786;22.760;2022-11-12T12:55:42;100816.73;;;12.48;70.41
58662;BME280;44432;49.786;22.760;2022-11-12T12:58:23;100816.26;;;12.46;69.72
58662;BME280;44432;49.786;22.760;2022-11-12T13:00:59;100810.80;;;12.40;69.85
58662;BME280;44432;49.786;22.760;2022-11-12T13:03:50;100806.95;;;12.34;69.70
58662;BME280;44432;49.786;22.760;2022-11-12T13:06:27;100809.67;;;12.27;69.64
58662;BME280;44432;49.786;22.760;2022-11-12T13:09:02;100808.11;;;12.19;69.65
58662;BME280;44432;49.786;22.760;2022-11-12T13:11:52;100803.67;;;12.09;69.54
58662;BME280;44432;49.786;22.760;2022-11-12T13:15:12;100808.95;;;11.99;69.62
58662;BME280;44432;49.786;22.760;2022-11-12T13:17:45;100805.48;;;11.88;69.87
58662;BME280;44432;49.786;22.760;2022-11-12T13:20:37;100805.94;;;11.83;69.94